Fordtran, Texas
Current Conditions -  °F | °C
As of 1:51 PM on Saturday 20 Dec 2014 (Local Time) from KVCT Reporting Station
Overcast Overcast  
Wind Chill: 57°   Ceiling: 1600
Heat Index: 57°   Visibility: 10mi
Dew Point: 50°   Wind: 6mph
Humidity: 77%   Direction: 70°ENE
Pressure: 30.16"   Gusts: NA
Location:  29.2421°N, 97.0692°W
Report Text: KVCT 201951Z 07005KT 10SM OVC016 14/10 A3016 RMK AO2 SLP214 T01390100 $
Loading
Personal Weather Stations






























Interactive Weather Map New forecast layout! Learn more

10-Day Weather Forecast

Advertisements
Track Severe Weather on mobile